sensor_id;sensor_type;location;lat;lon;timestamp;temperature;humidity
3262;DHT22;1643;47.746;9.000;2022-08-03T00:01:25;22.60;99.90
3262;DHT22;1643;47.746;9.000;2022-08-03T00:03:50;22.60;99.90
3262;DHT22;1643;47.746;9.000;2022-08-03T00:06:16;22.60;99.90
3262;DHT22;1643;47.746;9.000;2022-08-03T00:08:41;22.40;99.90
3262;DHT22;1643;47.746;9.000;2022-08-03T00:11:07;22.40;99.90
3262;DHT22;1643;47.746;9.000;2022-08-03T00:13:33;22.40;99.90
3262;DHT22;1643;47.746;9.000;2022-08-03T00:15:58;22.40;99.90
3262;DHT22;1643;47.746;9.000;2022-08-03T00:18:24;22.40;99.90
3262;DHT22;1643;47.746;9.000;2022-08-03T00:20:50;22.40;99.90
3262;DHT22;1643;47.746;9.000;2022-08-03T00:23:15;22.40;99.90
3262;DHT22;1643;47.746;9.000;2022-08-03T00:25:41;22.40;99.90
3262;DHT22;1643;47.746;9.000;2022-08-03T00:28:07;22.30;99.90
3262;DHT22;1643;47.746;9.000;2022-08-03T00:30:33;22.40;99.90
3262;DHT22;1643;47.746;9.000;2022-08-03T00:33:00;22.30;99.90
3262;DHT22;1643;47.746;9.000;2022-08-03T00:35:26;22.30;99.90
3262;DHT22;1643;47.746;9.000;2022-08-03T00:37:52;22.20;99.90
3262;DHT22;1643;47.746;9.000;2022-08-03T00:40:18;22.20;99.90
3262;DHT22;1643;47.746;9.000;2022-08-03T00:45:18;22.20;99.90
3262;DHT22;1643;47.746;9.000;2022-08-03T00:47:44;22.20;99.90
3262;DHT22;1643;47.746;9.000;2022-08-03T00:50:10;22.20;99.90
3262;DHT22;1643;47.746;9.000;2022-08-03T00:52:36;22.20;99.90
3262;DHT22;1643;47.746;9.000;2022-08-03T00:55:03;22.10;99.90
3262;DHT22;1643;47.746;9.000;2022-08-03T00:57:29;22.10;99.90
3262;DHT22;1643;47.746;9.000;2022-08-03T00:59:56;22.00;99.90
3262;DHT22;1643;47.746;9.000;2022-08-03T01:02:24;21.90;99.90
3262;DHT22;1643;47.746;9.000;2022-08-03T01:04:51;21.80;99.90
3262;DHT22;1643;47.746;9.000;2022-08-03T01:07:32;21.90;99.90
3262;DHT22;1643;47.746;9.000;2022-08-03T01:10:24;21.90;99.90
3262;DHT22;1643;47.746;9.000;2022-08-03T01:13:31;21.80;99.90
3262;DHT22;1643;47.746;9.000;2022-08-03T01:19:08;21.80;99.90
3262;DHT22;1643;47.746;9.000;2022-08-03T01:22:07;21.90;99.90
3262;DHT22;1643;47.746;9.000;2022-08-03T01:24:54;21.80;99.90
3262;DHT22;1643;47.746;9.000;2022-08-03T01:27:25;21.80;99.90
3262;DHT22;1643;47.746;9.000;2022-08-03T01:30:09;21.80;99.90
3262;DHT22;1643;47.746;9.000;2022-08-03T01:32:49;21.80;99.90
3262;DHT22;1643;47.746;9.000;2022-08-03T01:35:26;21.80;99.90
3262;DHT22;1643;47.746;9.000;2022-08-03T01:37:56;21.80;99.90
3262;DHT22;1643;47.746;9.000;2022-08-03T01:40:24;21.80;99.90
3262;DHT22;1643;47.746;9.000;2022-08-03T01:42:54;21.70;99.90
3262;DHT22;1643;47.746;9.000;2022-08-03T01:45:21;21.70;99.90
3262;DHT22;1643;47.746;9.000;2022-08-03T01:47:48;21.70;99.90
3262;DHT22;1643;47.746;9.000;2022-08-03T01:50:14;21.60;99.90
3262;DHT22;1643;47.746;9.000;2022-08-03T01:52:41;21.60;99.90
3262;DHT22;1643;47.746;9.000;2022-08-03T01:55:09;21.60;99.90
3262;DHT22;1643;47.746;9.000;2022-08-03T01:57:38;21.70;99.90
3262;DHT22;1643;47.746;9.000;2022-08-03T02:00:05;21.70;99.90
3262;DHT22;1643;47.746;9.000;2022-08-03T02:02:36;21.70;99.90
3262;DHT22;1643;47.746;9.000;2022-08-03T02:05:06;21.60;99.90
3262;DHT22;1643;47.746;9.000;2022-08-03T02:07:33;21.60;99.90
3262;DHT22;1643;47.746;9.000;2022-08-03T02:10:00;21.50;99.90
3262;DHT22;1643;47.746;9.000;2022-08-03T02:12:30;21.60;99.90
3262;DHT22;1643;47.746;9.000;2022-08-03T02:14:58;21.50;99.90
3262;DHT22;1643;47.746;9.000;2022-08-03T02:17:25;21.50;99.90
3262;DHT22;1643;47.746;9.000;2022-08-03T02:19:53;21.50;99.90
3262;DHT22;1643;47.746;9.000;2022-08-03T02:22:21;21.50;99.90
3262;DHT22;1643;47.746;9.000;2022-08-03T02:24:48;21.40;99.90
3262;DHT22;1643;47.746;9.000;2022-08-03T02:27:25;21.40;99.90
3262;DHT22;1643;47.746;9.000;2022-08-03T02:30:04;21.40;99.90
3262;DHT22;1643;47.746;9.000;2022-08-03T02:32:35;21.40;99.90
3262;DHT22;1643;47.746;9.000;2022-08-03T02:35:03;21.40;99.90
3262;DHT22;1643;47.746;9.000;2022-08-03T02:37:33;21.40;99.90
3262;DHT22;1643;47.746;9.000;2022-08-03T02:40:02;21.30;99.90
3262;DHT22;1643;47.746;9.000;2022-08-03T02:42:31;21.40;99.90
3262;DHT22;1643;47.746;9.000;2022-08-03T02:44:59;21.40;99.90
3262;DHT22;1643;47.746;9.000;2022-08-03T02:47:27;21.30;99.90
3262;DHT22;1643;47.746;9.000;2022-08-03T02:49:57;21.30;99.90
3262;DHT22;1643;47.746;9.000;2022-08-03T02:52:27;21.30;99.90
3262;DHT22;1643;47.746;9.000;2022-08-03T02:54:57;21.30;99.90
3262;DHT22;1643;47.746;9.000;2022-08-03T02:57:29;21.30;99.90
3262;DHT22;1643;47.746;9.000;2022-08-03T02:59:57;21.30;99.90
3262;DHT22;1643;47.746;9.000;2022-08-03T03:02:24;21.20;99.90
3262;DHT22;1643;47.746;9.000;2022-08-03T03:04:50;21.20;99.90
3262;DHT22;1643;47.746;9.000;2022-08-03T03:07:17;21.10;99.90
3262;DHT22;1643;47.746;9.000;2022-08-03T03:09:43;21.10;99.90
3262;DHT22;1643;47.746;9.000;2022-08-03T03:12:11;21.10;99.90
3262;DHT22;1643;47.746;9.000;2022-08-03T03:14:38;21.10;99.90
3262;DHT22;1643;47.746;9.000;2022-08-03T03:17:05;21.00;99.90
3262;DHT22;1643;47.746;9.000;2022-08-03T03:19:32;21.00;99.90
3262;DHT22;1643;47.746;9.000;2022-08-03T03:22:03;21.10;99.90
3262;DHT22;1643;47.746;9.000;2022-08-03T03:24:31;21.00;99.90
3262;DHT22;1643;47.746;9.000;2022-08-03T03:26:57;21.00;99.90
3262;DHT22;1643;47.746;9.000;2022-08-03T03:29:23;20.90;99.90
3262;DHT22;1643;47.746;9.000;2022-08-03T03:31:49;20.90;99.90
3262;DHT22;1643;47.746;9.000;2022-08-03T03:34:15;20.90;99.90
3262;DHT22;1643;47.746;9.000;2022-08-03T03:36:41;20.90;99.90
3262;DHT22;1643;47.746;9.000;2022-08-03T03:39:07;20.90;99.90
3262;DHT22;1643;47.746;9.000;2022-08-03T03:41:33;20.90;99.90
3262;DHT22;1643;47.746;9.000;2022-08-03T03:43:59;20.90;99.90
3262;DHT22;1643;47.746;9.000;2022-08-03T03:46:25;20.90;99.90
3262;DHT22;1643;47.746;9.000;2022-08-03T03:48:50;20.80;99.90
3262;DHT22;1643;47.746;9.000;2022-08-03T03:51:16;20.70;99.90
3262;DHT22;1643;47.746;9.000;2022-08-03T03:53:59;20.70;99.90
3262;DHT22;1643;47.746;9.000;2022-08-03T03:56:25;20.70;99.90
3262;DHT22;1643;47.746;9.000;2022-08-03T03:58:51;20.60;99.90
3262;DHT22;1643;47.746;9.000;2022-08-03T04:01:16;20.60;99.90
3262;DHT22;1643;47.746;9.000;2022-08-03T04:03:42;20.60;99.90
3262;DHT22;1643;47.746;9.000;2022-08-03T04:06:08;20.60;99.90
3262;DHT22;1643;47.746;9.000;2022-08-03T04:08:52;20.70;99.90
3262;DHT22;1643;47.746;9.000;2022-08-03T04:11:39;20.60;99.90
3262;DHT22;1643;47.746;9.000;2022-08-03T04:14:09;20.60;99.90
3262;DHT22;1643;47.746;9.000;2022-08-03T04:16:39;20.60;99.90
3262;DHT22;1643;47.746;9.000;2022-08-03T04:19:08;20.50;99.90
3262;DHT22;1643;47.746;9.000;2022-08-03T04:21:38;20.60;99.90
3262;DHT22;1643;47.746;9.000;2022-08-03T04:24:07;20.60;99.90
3262;DHT22;1643;47.746;9.000;2022-08-03T04:26:36;20.60;99.90
3262;DHT22;1643;47.746;9.000;2022-08-03T04:29:05;20.50;99.90
3262;DHT22;1643;47.746;9.000;2022-08-03T04:31:31;20.50;99.90
3262;DHT22;1643;47.746;9.000;2022-08-03T04:33:58;20.50;99.90
3262;DHT22;1643;47.746;9.000;2022-08-03T04:36:26;20.50;99.90
3262;DHT22;1643;47.746;9.000;2022-08-03T04:39:10;20.60;99.90
3262;DHT22;1643;47.746;9.000;2022-08-03T04:41:38;20.60;99.90
3262;DHT22;1643;47.746;9.000;2022-08-03T04:44:05;20.60;99.90
3262;DHT22;1643;47.746;9.000;2022-08-03T04:46:34;20.60;99.90
3262;DHT22;1643;47.746;9.000;2022-08-03T04:49:01;20.60;99.90
3262;DHT22;1643;47.746;9.000;2022-08-03T04:51:28;20.70;99.90
3262;DHT22;1643;47.746;9.000;2022-08-03T04:53:54;20.70;99.90
3262;DHT22;1643;47.746;9.000;2022-08-03T04:56:19;20.70;99.90
3262;DHT22;1643;47.746;9.000;2022-08-03T04:58:45;20.70;99.90
3262;DHT22;1643;47.746;9.000;2022-08-03T05:01:10;20.70;99.90
3262;DHT22;1643;47.746;9.000;2022-08-03T05:03:36;20.80;99.90
3262;DHT22;1643;47.746;9.000;2022-08-03T05:06:02;20.80;99.90
3262;DHT22;1643;47.746;9.000;2022-08-03T05:08:28;20.80;99.90
3262;DHT22;1643;47.746;9.000;2022-08-03T05:10:54;20.80;99.90
3262;DHT22;1643;47.746;9.000;2022-08-03T05:13:20;20.80;99.90
3262;DHT22;1643;47.746;9.000;2022-08-03T05:15:45;20.90;99.90
3262;DHT22;1643;47.746;9.000;2022-08-03T05:18:11;20.90;99.90
3262;DHT22;1643;47.746;9.000;2022-08-03T05:20:36;20.90;99.90
3262;DHT22;1643;47.746;9.000;2022-08-03T05:23:02;21.00;99.90
3262;DHT22;1643;47.746;9.000;2022-08-03T05:25:29;21.00;99.90
3262;DHT22;1643;47.746;9.000;2022-08-03T05:27:54;21.00;99.90
3262;DHT22;1643;47.746;9.000;2022-08-03T05:30:20;21.00;99.90
3262;DHT22;1643;47.746;9.000;2022-08-03T05:32:46;21.00;99.90
3262;DHT22;1643;47.746;9.000;2022-08-03T05:35:12;20.90;99.90
3262;DHT22;1643;47.746;9.000;2022-08-03T05:37:37;20.90;99.90
3262;DHT22;1643;47.746;9.000;2022-08-03T05:40:03;20.90;99.90
3262;DHT22;1643;47.746;9.000;2022-08-03T05:42:29;20.90;99.90
3262;DHT22;1643;47.746;9.000;2022-08-03T05:44:55;20.90;99.90
3262;DHT22;1643;47.746;9.000;2022-08-03T05:47:21;20.90;99.90
3262;DHT22;1643;47.746;9.000;2022-08-03T05:49:46;20.90;99.90
3262;DHT22;1643;47.746;9.000;2022-08-03T05:52:12;21.00;99.90
3262;DHT22;1643;47.746;9.000;2022-08-03T05:54:38;21.00;99.90
3262;DHT22;1643;47.746;9.000;2022-08-03T05:57:03;21.10;99.90
3262;DHT22;1643;47.746;9.000;2022-08-03T05:59:29;21.20;99.90
3262;DHT22;1643;47.746;9.000;2022-08-03T06:01:55;21.20;99.90
3262;DHT22;1643;47.746;9.000;2022-08-03T06:04:20;21.30;99.90
3262;DHT22;1643;47.746;9.000;2022-08-03T06:06:46;21.30;99.90
3262;DHT22;1643;47.746;9.000;2022-08-03T06:09:12;21.40;99.90
3262;DHT22;1643;47.746;9.000;2022-08-03T06:11:38;21.50;99.90
3262;DHT22;1643;47.746;9.000;2022-08-03T06:14:05;21.50;99.90
3262;DHT22;1643;47.746;9.000;2022-08-03T06:16:31;21.50;99.90
3262;DHT22;1643;47.746;9.000;2022-08-03T06:18:57;21.60;99.90
3262;DHT22;1643;47.746;9.000;2022-08-03T06:21:23;21.70;99.90
3262;DHT22;1643;47.746;9.000;2022-08-03T06:23:49;21.80;99.90
3262;DHT22;1643;47.746;9.000;2022-08-03T06:26:15;21.90;99.90
3262;DHT22;1643;47.746;9.000;2022-08-03T06:28:43;22.00;99.90
3262;DHT22;1643;47.746;9.000;2022-08-03T06:31:08;22.00;99.90
3262;DHT22;1643;47.746;9.000;2022-08-03T06:33:34;22.10;99.90
3262;DHT22;1643;47.746;9.000;2022-08-03T06:35:59;22.20;99.90
3262;DHT22;1643;47.746;9.000;2022-08-03T06:38:25;22.30;99.90
3262;DHT22;1643;47.746;9.000;2022-08-03T06:40:51;22.30;99.90
3262;DHT22;1643;47.746;9.000;2022-08-03T06:43:16;22.40;99.90
3262;DHT22;1643;47.746;9.000;2022-08-03T06:45:42;22.50;99.90
3262;DHT22;1643;47.746;9.000;2022-08-03T06:48:10;22.60;99.90
3262;DHT22;1643;47.746;9.000;2022-08-03T06:50:40;22.70;99.90
3262;DHT22;1643;47.746;9.000;2022-08-03T06:53:06;22.80;99.90
3262;DHT22;1643;47.746;9.000;2022-08-03T06:55:33;22.80;99.90
3262;DHT22;1643;47.746;9.000;2022-08-03T06:57:59;22.80;99.90
3262;DHT22;1643;47.746;9.000;2022-08-03T07:00:25;22.90;99.90
3262;DHT22;1643;47.746;9.000;2022-08-03T07:02:51;22.90;99.90
3262;DHT22;1643;47.746;9.000;2022-08-03T07:05:16;23.00;99.90
3262;DHT22;1643;47.746;9.000;2022-08-03T07:07:42;23.10;99.90
3262;DHT22;1643;47.746;9.000;2022-08-03T07:10:09;23.10;99.90
3262;DHT22;1643;47.746;9.000;2022-08-03T07:12:36;23.10;99.90
3262;DHT22;1643;47.746;9.000;2022-08-03T07:15:04;23.10;99.90
3262;DHT22;1643;47.746;9.000;2022-08-03T07:17:31;23.20;99.90
3262;DHT22;1643;47.746;9.000;2022-08-03T07:19:58;23.30;99.90
3262;DHT22;1643;47.746;9.000;2022-08-03T07:22:24;23.30;99.90
3262;DHT22;1643;47.746;9.000;2022-08-03T07:24:50;23.30;99.90
3262;DHT22;1643;47.746;9.000;2022-08-03T07:27:16;23.40;99.90
3262;DHT22;1643;47.746;9.000;2022-08-03T07:29:42;23.30;99.90
3262;DHT22;1643;47.746;9.000;2022-08-03T07:32:08;23.40;99.90
3262;DHT22;1643;47.746;9.000;2022-08-03T07:34:33;23.50;99.90
3262;DHT22;1643;47.746;9.000;2022-08-03T07:36:59;23.50;99.90
3262;DHT22;1643;47.746;9.000;2022-08-03T07:39:25;23.60;99.90
3262;DHT22;1643;47.746;9.000;2022-08-03T07:41:50;23.60;99.90
3262;DHT22;1643;47.746;9.000;2022-08-03T07:44:17;23.60;99.90
3262;DHT22;1643;47.746;9.000;2022-08-03T07:46:43;23.60;99.90
3262;DHT22;1643;47.746;9.000;2022-08-03T07:49:09;23.70;99.90
3262;DHT22;1643;47.746;9.000;2022-08-03T07:51:35;23.70;99.90
3262;DHT22;1643;47.746;9.000;2022-08-03T07:54:01;23.70;99.90
3262;DHT22;1643;47.746;9.000;2022-08-03T07:56:27;23.80;99.90
3262;DHT22;1643;47.746;9.000;2022-08-03T07:58:53;23.80;99.90
3262;DHT22;1643;47.746;9.000;2022-08-03T08:01:19;23.80;99.90
3262;DHT22;1643;47.746;9.000;2022-08-03T08:03:46;23.90;99.90
3262;DHT22;1643;47.746;9.000;2022-08-03T08:06:11;23.90;99.90
3262;DHT22;1643;47.746;9.000;2022-08-03T08:08:38;24.00;99.90
3262;DHT22;1643;47.746;9.000;2022-08-03T08:11:05;24.00;99.90
3262;DHT22;1643;47.746;9.000;2022-08-03T08:13:31;24.10;99.90
3262;DHT22;1643;47.746;9.000;2022-08-03T08:15:57;24.10;99.90
3262;DHT22;1643;47.746;9.000;2022-08-03T08:18:23;24.10;99.90
3262;DHT22;1643;47.746;9.000;2022-08-03T08:20:49;24.20;99.90
3262;DHT22;1643;47.746;9.000;2022-08-03T08:23:15;24.30;99.90
3262;DHT22;1643;47.746;9.000;2022-08-03T08:25:47;24.30;99.90
3262;DHT22;1643;47.746;9.000;2022-08-03T08:28:13;24.30;99.90
3262;DHT22;1643;47.746;9.000;2022-08-03T08:30:39;24.30;99.90
3262;DHT22;1643;47.746;9.000;2022-08-03T08:33:05;24.30;99.90
3262;DHT22;1643;47.746;9.000;2022-08-03T08:35:30;24.30;99.90
3262;DHT22;1643;47.746;9.000;2022-08-03T08:37:58;24.30;99.90
3262;DHT22;1643;47.746;9.000;2022-08-03T08:40:25;24.30;99.90
3262;DHT22;1643;47.746;9.000;2022-08-03T08:42:51;24.30;99.90
3262;DHT22;1643;47.746;9.000;2022-08-03T08:45:18;24.30;99.90
3262;DHT22;1643;47.746;9.000;2022-08-03T08:47:46;24.30;99.90
3262;DHT22;1643;47.746;9.000;2022-08-03T08:50:12;24.40;99.90
3262;DHT22;1643;47.746;9.000;2022-08-03T08:52:40;24.40;99.90
3262;DHT22;1643;47.746;9.000;2022-08-03T08:55:11;24.40;99.90
3262;DHT22;1643;47.746;9.000;2022-08-03T08:57:44;24.40;99.90
3262;DHT22;1643;47.746;9.000;2022-08-03T09:00:11;24.40;99.90
3262;DHT22;1643;47.746;9.000;2022-08-03T09:02:41;24.60;99.90
3262;DHT22;1643;47.746;9.000;2022-08-03T09:05:14;24.60;99.90
3262;DHT22;1643;47.746;9.000;2022-08-03T09:07:41;24.70;99.90
3262;DHT22;1643;47.746;9.000;2022-08-03T09:10:09;24.70;99.90
3262;DHT22;1643;47.746;9.000;2022-08-03T09:12:41;24.80;99.90
3262;DHT22;1643;47.746;9.000;2022-08-03T09:15:25;24.80;99.90
3262;DHT22;1643;47.746;9.000;2022-08-03T09:17:53;24.90;99.90
3262;DHT22;1643;47.746;9.000;2022-08-03T09:20:21;24.80;99.90
3262;DHT22;1643;47.746;9.000;2022-08-03T09:25:26;24.90;99.90
3262;DHT22;1643;47.746;9.000;2022-08-03T09:27:52;25.00;99.90
3262;DHT22;1643;47.746;9.000;2022-08-03T09:30:18;25.00;99.90
3262;DHT22;1643;47.746;9.000;2022-08-03T09:32:44;25.10;99.90
3262;DHT22;1643;47.746;9.000;2022-08-03T09:35:12;25.10;99.90
3262;DHT22;1643;47.746;9.000;2022-08-03T09:37:39;25.10;99.90
3262;DHT22;1643;47.746;9.000;2022-08-03T09:40:05;25.20;99.90
3262;DHT22;1643;47.746;9.000;2022-08-03T09:42:31;25.30;99.90
3262;DHT22;1643;47.746;9.000;2022-08-03T09:45:03;25.40;99.90
3262;DHT22;1643;47.746;9.000;2022-08-03T09:47:31;25.50;99.90
3262;DHT22;1643;47.746;9.000;2022-08-03T09:50:05;25.50;99.90
3262;DHT22;1643;47.746;9.000;2022-08-03T09:52:34;25.50;99.90
3262;DHT22;1643;47.746;9.000;2022-08-03T09:55:07;25.60;99.90
3262;DHT22;1643;47.746;9.000;2022-08-03T09:57:33;25.70;99.90
3262;DHT22;1643;47.746;9.000;2022-08-03T10:00:10;25.80;99.90
3262;DHT22;1643;47.746;9.000;2022-08-03T10:02:41;25.80;99.90
3262;DHT22;1643;47.746;9.000;2022-08-03T10:05:09;25.80;99.90
3262;DHT22;1643;47.746;9.000;2022-08-03T10:07:46;25.80;99.90
3262;DHT22;1643;47.746;9.000;2022-08-03T10:10:13;25.80;99.90
3262;DHT22;1643;47.746;9.000;2022-08-03T10:12:40;25.90;99.90
3262;DHT22;1643;47.746;9.000;2022-08-03T10:15:07;25.90;99.90
3262;DHT22;1643;47.746;9.000;2022-08-03T10:17:33;26.00;99.90
3262;DHT22;1643;47.746;9.000;2022-08-03T10:19:59;26.00;99.90
3262;DHT22;1643;47.746;9.000;2022-08-03T10:22:31;26.10;99.90
3262;DHT22;1643;47.746;9.000;2022-08-03T10:25:10;26.10;99.90
3262;DHT22;1643;47.746;9.000;2022-08-03T10:27:38;26.20;99.90
3262;DHT22;1643;47.746;9.000;2022-08-03T10:30:10;26.20;99.90
3262;DHT22;1643;47.746;9.000;2022-08-03T10:32:54;26.30;99.90
3262;DHT22;1643;47.746;9.000;2022-08-03T10:35:22;26.30;99.90
3262;DHT22;1643;47.746;9.000;2022-08-03T10:37:57;26.30;99.90
3262;DHT22;1643;47.746;9.000;2022-08-03T10:40:26;26.50;99.90
3262;DHT22;1643;47.746;9.000;2022-08-03T10:42:55;26.50;99.90
3262;DHT22;1643;47.746;9.000;2022-08-03T10:45:26;26.60;99.90
3262;DHT22;1643;47.746;9.000;2022-08-03T10:47:54;26.60;99.90
3262;DHT22;1643;47.746;9.000;2022-08-03T10:50:23;26.70;99.90
3262;DHT22;1643;47.746;9.000;2022-08-03T10:53:00;26.90;99.90
3262;DHT22;1643;47.746;9.000;2022-08-03T10:55:38;26.90;99.90
3262;DHT22;1643;47.746;9.000;2022-08-03T10:58:45;26.80;99.90
3262;DHT22;1643;47.746;9.000;2022-08-03T11:01:11;26.90;99.90
3262;DHT22;1643;47.746;9.000;2022-08-03T11:06:26;27.00;99.90
3262;DHT22;1643;47.746;9.000;2022-08-03T11:11:36;27.40;99.90
3262;DHT22;1643;47.746;9.000;2022-08-03T11:14:08;27.40;99.90
3262;DHT22;1643;47.746;9.000;2022-08-03T11:19:07;27.50;99.90
3262;DHT22;1643;47.746;9.000;2022-08-03T11:29:56;27.80;99.90
3262;DHT22;1643;47.746;9.000;2022-08-03T11:35:09;27.80;99.80
3262;DHT22;1643;47.746;9.000;2022-08-03T11:38:00;28.00;99.60
3262;DHT22;1643;47.746;9.000;2022-08-03T11:46:09;28.30;98.30
3262;DHT22;1643;47.746;9.000;2022-08-03T11:48:50;28.20;97.60
3262;DHT22;1643;47.746;9.000;2022-08-03T11:51:25;28.30;97.50
3262;DHT22;1643;47.746;9.000;2022-08-03T11:54:04;28.40;97.50
3262;DHT22;1643;47.746;9.000;2022-08-03T11:56:48;28.60;97.40
3262;DHT22;1643;47.746;9.000;2022-08-03T11:59:14;28.60;97.10
3262;DHT22;1643;47.746;9.000;2022-08-03T12:01:40;28.60;96.70
3262;DHT22;1643;47.746;9.000;2022-08-03T12:04:06;28.60;96.30
3262;DHT22;1643;47.746;9.000;2022-08-03T12:06:32;28.70;96.30
3262;DHT22;1643;47.746;9.000;2022-08-03T12:09:17;28.80;95.90
3262;DHT22;1643;47.746;9.000;2022-08-03T12:11:47;28.90;95.60
3262;DHT22;1643;47.746;9.000;2022-08-03T12:14:18;29.10;95.30
3262;DHT22;1643;47.746;9.000;2022-08-03T12:16:47;29.00;94.50
3262;DHT22;1643;47.746;9.000;2022-08-03T12:19:13;29.10;93.90
3262;DHT22;1643;47.746;9.000;2022-08-03T12:21:49;29.10;93.60
3262;DHT22;1643;47.746;9.000;2022-08-03T12:24:15;29.20;93.40
3262;DHT22;1643;47.746;9.000;2022-08-03T12:26:49;29.20;93.10
3262;DHT22;1643;47.746;9.000;2022-08-03T12:29:18;29.30;93.00
3262;DHT22;1643;47.746;9.000;2022-08-03T12:31:44;29.40;92.20
3262;DHT22;1643;47.746;9.000;2022-08-03T12:34:10;29.40;92.00
3262;DHT22;1643;47.746;9.000;2022-08-03T12:36:36;29.40;91.60
3262;DHT22;1643;47.746;9.000;2022-08-03T12:39:07;29.40;91.30
3262;DHT22;1643;47.746;9.000;2022-08-03T12:41:37;29.50;90.80
3262;DHT22;1643;47.746;9.000;2022-08-03T12:44:04;29.50;90.50
3262;DHT22;1643;47.746;9.000;2022-08-03T12:46:35;29.50;89.40
3262;DHT22;1643;47.746;9.000;2022-08-03T12:49:12;29.60;89.60
3262;DHT22;1643;47.746;9.000;2022-08-03T12:54:16;29.80;88.80
3262;DHT22;1643;47.746;9.000;2022-08-03T12:57:02;29.90;88.80
3262;DHT22;1643;47.746;9.000;2022-08-03T12:59:35;29.80;88.50
3262;DHT22;1643;47.746;9.000;2022-08-03T13:02:02;29.90;87.80
3262;DHT22;1643;47.746;9.000;2022-08-03T13:04:33;30.00;88.00
3262;DHT22;1643;47.746;9.000;2022-08-03T13:07:05;30.10;87.30
3262;DHT22;1643;47.746;9.000;2022-08-03T13:12:21;30.20;86.60
3262;DHT22;1643;47.746;9.000;2022-08-03T13:15:05;30.20;85.30
3262;DHT22;1643;47.746;9.000;2022-08-03T13:17:31;30.40;83.80
3262;DHT22;1643;47.746;9.000;2022-08-03T13:19:57;30.40;83.20
3262;DHT22;1643;47.746;9.000;2022-08-03T13:22:24;30.50;83.20
3262;DHT22;1643;47.746;9.000;2022-08-03T13:24:53;30.60;81.50
3262;DHT22;1643;47.746;9.000;2022-08-03T13:27:25;30.60;80.30
3262;DHT22;1643;47.746;9.000;2022-08-03T13:29:51;30.60;80.20
3262;DHT22;1643;47.746;9.000;2022-08-03T13:32:18;30.60;80.00
3262;DHT22;1643;47.746;9.000;2022-08-03T13:34:44;30.70;77.90
3262;DHT22;1643;47.746;9.000;2022-08-03T13:37:09;30.70;77.70
3262;DHT22;1643;47.746;9.000;2022-08-03T13:39:37;30.80;77.60
3262;DHT22;1643;47.746;9.000;2022-08-03T13:42:03;30.90;77.00
3262;DHT22;1643;47.746;9.000;2022-08-03T13:44:30;31.00;75.30
3262;DHT22;1643;47.746;9.000;2022-08-03T13:46:56;31.00;73.60
3262;DHT22;1643;47.746;9.000;2022-08-03T13:49:21;31.00;73.20
3262;DHT22;1643;47.746;9.000;2022-08-03T13:51:47;31.20;72.90
3262;DHT22;1643;47.746;9.000;2022-08-03T13:54:13;31.30;72.30
3262;DHT22;1643;47.746;9.000;2022-08-03T13:56:38;31.40;71.80
3262;DHT22;1643;47.746;9.000;2022-08-03T13:59:04;31.40;70.80
3262;DHT22;1643;47.746;9.000;2022-08-03T14:01:30;31.30;69.60
3262;DHT22;1643;47.746;9.000;2022-08-03T14:03:56;31.30;70.20
3262;DHT22;1643;47.746;9.000;2022-08-03T14:06:23;31.40;70.50
3262;DHT22;1643;47.746;9.000;2022-08-03T14:08:50;31.50;69.80
3262;DHT22;1643;47.746;9.000;2022-08-03T14:11:16;31.50;69.20
3262;DHT22;1643;47.746;9.000;2022-08-03T14:13:42;31.40;69.20
3262;DHT22;1643;47.746;9.000;2022-08-03T14:16:08;31.50;69.30
3262;DHT22;1643;47.746;9.000;2022-08-03T14:18:33;31.50;69.40
3262;DHT22;1643;47.746;9.000;2022-08-03T14:21:01;31.50;69.30
3262;DHT22;1643;47.746;9.000;2022-08-03T14:23:27;31.50;70.00
3262;DHT22;1643;47.746;9.000;2022-08-03T14:25:52;31.50;69.40
3262;DHT22;1643;47.746;9.000;2022-08-03T14:28:20;31.50;69.70
3262;DHT22;1643;47.746;9.000;2022-08-03T14:30:53;31.60;70.00
3262;DHT22;1643;47.746;9.000;2022-08-03T14:33:19;31.60;69.30
3262;DHT22;1643;47.746;9.000;2022-08-03T14:35:45;31.70;69.10
3262;DHT22;1643;47.746;9.000;2022-08-03T14:38:10;31.60;68.90
3262;DHT22;1643;47.746;9.000;2022-08-03T14:40:36;31.70;69.20
3262;DHT22;1643;47.746;9.000;2022-08-03T14:43:02;31.70;69.20
3262;DHT22;1643;47.746;9.000;2022-08-03T14:45:28;31.60;69.20
3262;DHT22;1643;47.746;9.000;2022-08-03T14:47:53;31.70;69.20
3262;DHT22;1643;47.746;9.000;2022-08-03T14:50:19;31.70;69.20
3262;DHT22;1643;47.746;9.000;2022-08-03T14:52:45;31.70;68.80
3262;DHT22;1643;47.746;9.000;2022-08-03T14:55:14;31.70;68.60
3262;DHT22;1643;47.746;9.000;2022-08-03T14:57:39;31.70;69.20
3262;DHT22;1643;47.746;9.000;2022-08-03T15:00:05;31.80;69.80
3262;DHT22;1643;47.746;9.000;2022-08-03T15:02:31;31.90;68.90
3262;DHT22;1643;47.746;9.000;2022-08-03T15:04:57;31.90;68.30
3262;DHT22;1643;47.746;9.000;2022-08-03T15:07:23;31.90;68.40
3262;DHT22;1643;47.746;9.000;2022-08-03T15:09:48;31.90;68.40
3262;DHT22;1643;47.746;9.000;2022-08-03T15:12:14;31.90;68.00
3262;DHT22;1643;47.746;9.000;2022-08-03T15:14:40;31.90;67.40
3262;DHT22;1643;47.746;9.000;2022-08-03T15:17:05;32.00;67.20
3262;DHT22;1643;47.746;9.000;2022-08-03T15:19:31;32.00;67.30
3262;DHT22;1643;47.746;9.000;2022-08-03T15:21:57;32.10;67.30
3262;DHT22;1643;47.746;9.000;2022-08-03T15:24:23;32.10;67.20
3262;DHT22;1643;47.746;9.000;2022-08-03T15:26:50;32.10;67.20
3262;DHT22;1643;47.746;9.000;2022-08-03T15:29:16;32.10;67.60
3262;DHT22;1643;47.746;9.000;2022-08-03T15:31:42;32.20;67.40
3262;DHT22;1643;47.746;9.000;2022-08-03T15:34:07;32.20;67.10
3262;DHT22;1643;47.746;9.000;2022-08-03T15:36:33;32.20;67.00
3262;DHT22;1643;47.746;9.000;2022-08-03T15:38:59;32.30;67.50
3262;DHT22;1643;47.746;9.000;2022-08-03T15:41:25;32.30;68.40
3262;DHT22;1643;47.746;9.000;2022-08-03T15:43:50;32.30;69.00
3262;DHT22;1643;47.746;9.000;2022-08-03T15:46:17;32.20;68.70
3262;DHT22;1643;47.746;9.000;2022-08-03T15:48:43;32.10;67.60
3262;DHT22;1643;47.746;9.000;2022-08-03T15:51:09;32.10;67.30
3262;DHT22;1643;47.746;9.000;2022-08-03T15:53:35;32.10;67.00
3262;DHT22;1643;47.746;9.000;2022-08-03T15:56:02;32.10;66.80
3262;DHT22;1643;47.746;9.000;2022-08-03T15:58:28;32.10;66.90
3262;DHT22;1643;47.746;9.000;2022-08-03T16:00:58;32.30;66.90
3262;DHT22;1643;47.746;9.000;2022-08-03T16:03:24;32.40;66.50
3262;DHT22;1643;47.746;9.000;2022-08-03T16:05:52;32.40;66.00
3262;DHT22;1643;47.746;9.000;2022-08-03T16:08:18;32.30;65.60
3262;DHT22;1643;47.746;9.000;2022-08-03T16:10:47;32.30;65.70
3262;DHT22;1643;47.746;9.000;2022-08-03T16:13:13;32.30;65.30
3262;DHT22;1643;47.746;9.000;2022-08-03T16:15:39;32.30;64.80
3262;DHT22;1643;47.746;9.000;2022-08-03T16:18:05;32.20;64.50
3262;DHT22;1643;47.746;9.000;2022-08-03T16:20:31;32.30;64.90
3262;DHT22;1643;47.746;9.000;2022-08-03T16:22:56;32.40;64.60
3262;DHT22;1643;47.746;9.000;2022-08-03T16:25:22;32.30;64.70
3262;DHT22;1643;47.746;9.000;2022-08-03T16:27:48;32.30;65.10
3262;DHT22;1643;47.746;9.000;2022-08-03T16:30:15;32.30;64.50
3262;DHT22;1643;47.746;9.000;2022-08-03T16:32:43;32.30;64.80
3262;DHT22;1643;47.746;9.000;2022-08-03T16:35:10;32.20;64.20
3262;DHT22;1643;47.746;9.000;2022-08-03T16:37:36;32.10;64.10
3262;DHT22;1643;47.746;9.000;2022-08-03T16:40:04;32.00;64.30
3262;DHT22;1643;47.746;9.000;2022-08-03T16:42:32;31.90;64.00
3262;DHT22;1643;47.746;9.000;2022-08-03T16:44:58;31.90;64.40
3262;DHT22;1643;47.746;9.000;2022-08-03T16:47:23;31.70;64.00